Time;durP1;ratioP1;P1;durP2;ratioP2;P2;SDS_P1;SDS_P2;PMS_P1;PMS_P2;Temp;Humidity;BMP_temperature;BMP_pressure;BME280_temperature;BME280_humidity;BME280_pressure;Samples;Min_cycle;Max_cycle;Signal;HPM_P1;HPM_P2
2022/08/20 00:00:22;;;;;;;8.20;5.10;;;18.50;84.70;;;;;;5053763;28;20534;-13
2022/08/20 00:03:20;;;;;;;8.30;4.72;;;18.50;84.70;;;;;;5054878;28;20037;-13
2022/08/20 00:05:59;;;;;;;6.15;4.20;;;18.50;84.60;;;;;;5053821;28;20021;-13
2022/08/20 00:08:25;;;;;;;6.75;4.35;;;18.40;84.60;;;;;;5054997;28;20104;-13
2022/08/20 00:10:55;;;;;;;8.48;4.82;;;18.40;84.60;;;;;;5054861;28;20107;-12
2022/08/20 00:13:28;;;;;;;10.00;5.50;;;18.40;84.80;;;;;;5053535;28;20040;-13
2022/08/20 00:15:55;;;;;;;7.97;4.53;;;18.40;84.80;;;;;;5055190;28;20108;-14
2022/08/20 00:18:22;;;;;;;6.28;4.30;;;18.30;84.80;;;;;;5054717;28;20032;-13
2022/08/20 00:20:50;;;;;;;8.45;4.90;;;18.30;84.80;;;;;;5054568;28;20079;-14
2022/08/20 00:23:17;;;;;;;8.23;4.85;;;18.30;84.90;;;;;;5054905;28;20013;-12
2022/08/20 00:25:44;;;;;;;8.25;4.55;;;18.20;84.90;;;;;;5054793;28;20033;-13
2022/08/20 00:28:11;;;;;;;10.20;4.35;;;18.20;84.90;;;;;;5055089;28;20031;-12
2022/08/20 00:30:40;;;;;;;7.72;4.70;;;18.20;85.00;;;;;;5054474;28;20036;-13
2022/08/20 00:33:12;;;;;;;7.72;4.40;;;18.20;85.10;;;;;;5054772;28;20110;-13
2022/08/20 00:35:42;;;;;;;7.72;4.43;;;18.20;85.10;;;;;;5054764;28;20025;-12
2022/08/20 00:38:08;;;;;;;9.10;4.60;;;18.10;85.10;;;;;;5054325;28;20481;-12
2022/08/20 00:40:39;;;;;;;7.30;4.80;;;18.10;85.10;;;;;;5054498;28;20113;-13
2022/08/20 00:43:23;;;;;;;11.15;5.30;;;18.10;85.10;;;;;;5054107;28;20033;-13
2022/08/20 00:45:49;;;;;;;9.88;5.80;;;18.10;85.10;;;;;;5054443;28;20025;-14
2022/08/20 00:48:16;;;;;;;9.40;4.57;;;18.10;85.10;;;;;;5054244;28;20477;-12
2022/08/20 00:50:42;;;;;;;9.65;4.95;;;18.10;85.20;;;;;;5054246;28;20116;-13
2022/08/20 00:53:08;;;;;;;8.43;5.05;;;18.10;85.20;;;;;;5052808;28;20041;-13
2022/08/20 00:55:35;;;;;;;7.63;4.90;;;18.00;85.30;;;;;;5054316;28;20392;-13
2022/08/20 00:58:08;;;;;;;9.60;6.13;;;18.00;85.20;;;;;;5054330;28;20037;-12
2022/08/20 01:00:43;;;;;;;9.38;5.53;;;18.00;85.20;;;;;;5053997;28;20033;-13
2022/08/20 01:03:12;;;;;;;8.30;5.40;;;18.00;85.40;;;;;;5054033;28;20079;-13
2022/08/20 01:05:43;;;;;;;10.48;6.15;;;18.00;85.40;;;;;;5054084;28;20067;-13
2022/08/20 01:08:10;;;;;;;9.40;5.53;;;17.90;85.40;;;;;;5053981;28;20021;-12
2022/08/20 01:10:43;;;;;;;10.25;5.40;;;18.00;85.40;;;;;;5053867;28;20033;-14
2022/08/20 01:13:13;;;;;;;13.20;6.50;;;17.90;85.50;;;;;;5053417;28;20060;-12
2022/08/20 01:15:43;;;;;;;9.70;5.95;;;17.90;85.50;;;;;;5053666;28;20488;-12
2022/08/20 01:18:18;;;;;;;9.25;5.03;;;17.90;85.60;;;;;;5053610;28;20048;-14
2022/08/20 01:20:56;;;;;;;12.20;6.03;;;17.90;85.70;;;;;;5053751;28;20017;-13
2022/08/20 01:23:33;;;;;;;9.75;6.38;;;17.90;85.60;;;;;;5053879;28;20024;-14
2022/08/20 01:26:17;;;;;;;7.78;4.97;;;18.00;85.70;;;;;;5053452;28;20551;-14
2022/08/20 01:28:53;;;;;;;13.18;5.75;;;17.90;85.90;;;;;;5053640;28;20024;-13
2022/08/20 01:31:23;;;;;;;7.80;4.80;;;17.90;85.80;;;;;;5053437;28;20050;-13
2022/08/20 01:33:51;;;;;;;8.85;5.20;;;17.90;85.90;;;;;;5053498;28;20039;-13
2022/08/20 01:36:22;;;;;;;9.48;5.80;;;17.90;85.70;;;;;;5053301;28;20024;-12
2022/08/20 01:38:48;;;;;;;10.75;5.32;;;17.90;85.80;;;;;;5053098;28;20485;-14
2022/08/20 01:41:37;;;;;;;10.75;6.32;;;17.90;85.90;;;;;;5053174;28;20032;-13
2022/08/20 01:44:04;;;;;;;10.50;6.10;;;17.90;85.90;;;;;;5032146;28;20071;-13
2022/08/20 01:46:36;;;;;;;10.55;4.45;;;17.90;86.00;;;;;;5053488;28;20120;-12
2022/08/20 01:49:34;;;;;;;8.75;5.47;;;17.90;85.80;;;;;;5052965;28;20032;-13
2022/08/20 01:52:06;;;;;;;5.47;4.32;;;17.90;85.90;;;;;;5011580;28;20525;-13
2022/08/20 01:54:33;;;;;;;7.07;4.90;;;17.90;85.80;;;;;;5011695;28;20034;-13
2022/08/20 01:57:04;;;;;;;9.07;4.80;;;17.90;85.80;;;;;;4995528;28;20045;-12
2022/08/20 01:59:30;;;;;;;10.02;6.15;;;17.90;85.80;;;;;;5011317;28;20030;-13
2022/08/20 02:01:58;;;;;;;8.98;5.68;;;17.90;86.00;;;;;;5011669;28;20107;-13
2022/08/20 02:04:25;;;;;;;10.30;5.70;;;17.80;85.90;;;;;;5010998;28;20359;-12
2022/08/20 02:06:55;;;;;;;10.90;5.85;;;17.80;85.80;;;;;;5011143;28;20486;-12
2022/08/20 02:09:21;;;;;;;9.93;6.30;;;17.80;85.90;;;;;;5011308;28;20121;-12
2022/08/20 02:11:48;;;;;;;11.18;5.57;;;17.70;85.90;;;;;;5011459;28;20076;-12
2022/08/20 02:14:15;;;;;;;7.88;5.32;;;17.70;86.10;;;;;;5011399;28;20038;-12
2022/08/20 02:16:45;;;;;;;8.75;4.90;;;17.80;86.20;;;;;;4994756;28;20034;-12
2022/08/20 02:19:21;;;;;;;6.97;4.68;;;17.80;86.10;;;;;;5011709;28;20029;-12
2022/08/20 02:21:53;;;;;;;5.68;3.70;;;17.80;86.00;;;;;;5011114;28;20394;-13
2022/08/20 02:24:19;;;;;;;7.68;4.30;;;17.80;86.00;;;;;;5011116;28;20026;-13
2022/08/20 02:26:46;;;;;;;6.05;4.13;;;17.80;85.90;;;;;;5011128;28;20030;-13
2022/08/20 02:29:14;;;;;;;8.15;4.07;;;17.80;85.90;;;;;;5047554;28;20127;-12
2022/08/20 02:31:43;;;;;;;7.20;4.20;;;17.80;85.80;;;;;;5052790;28;20509;-14
2022/08/20 02:34:12;;;;;;;7.90;4.10;;;17.80;85.90;;;;;;5052900;28;20493;-12
2022/08/20 02:36:39;;;;;;;7.00;3.95;;;17.70;85.90;;;;;;5052932;28;20025;-14
2022/08/20 02:39:08;;;;;;;7.57;4.15;;;17.70;85.80;;;;;;5052982;28;20036;-14
2022/08/20 02:41:36;;;;;;;8.60;4.57;;;17.60;85.80;;;;;;5053232;28;20029;-13
2022/08/20 02:44:04;;;;;;;6.72;4.32;;;17.60;85.90;;;;;;5052571;28;20021;-13
2022/08/20 02:46:31;;;;;;;6.88;4.05;;;17.60;85.90;;;;;;5051628;28;20580;-13
2022/08/20 02:48:58;;;;;;;8.38;4.88;;;17.60;86.00;;;;;;5052797;28;20037;-13
2022/08/20 02:51:24;;;;;;;8.00;4.90;;;17.60;86.10;;;;;;5052804;28;20108;-13
2022/08/20 02:53:50;;;;;;;9.20;6.43;;;17.50;86.40;;;;;;5051045;28;20095;-13
2022/08/20 02:56:18;;;;;;;10.32;5.68;;;17.50;86.90;;;;;;5052402;28;20115;-13
2022/08/20 02:58:45;;;;;;;11.73;6.20;;;17.40;87.50;;;;;;5052483;28;20021;-13
2022/08/20 03:01:16;;;;;;;9.38;4.90;;;17.40;87.20;;;;;;5052561;28;20468;-14
2022/08/20 03:03:43;;;;;;;8.40;4.38;;;17.30;87.60;;;;;;5052840;28;20028;-13
2022/08/20 03:06:11;;;;;;;7.70;4.63;;;17.30;87.20;;;;;;5052030;28;20151;-13
2022/08/20 03:08:38;;;;;;;9.20;4.70;;;17.30;87.00;;;;;;5052593;28;20036;-14
2022/08/20 03:11:05;;;;;;;8.43;5.43;;;17.20;86.90;;;;;;5052103;28;20025;-13
2022/08/20 03:13:31;;;;;;;8.23;5.22;;;17.20;86.80;;;;;;5052307;28;20389;-13
2022/08/20 03:16:00;;;;;;;11.98;5.53;;;17.30;86.80;;;;;;5052313;28;20477;-14
2022/08/20 03:18:32;;;;;;;11.38;5.60;;;17.30;86.80;;;;;;5055594;28;20027;-13
2022/08/20 03:20:58;;;;;;;10.55;5.97;;;17.30;86.70;;;;;;5056326;28;20044;-13
2022/08/20 03:23:24;;;;;;;9.25;5.65;;;17.30;86.70;;;;;;5056124;28;20028;-14
2022/08/20 03:25:50;;;;;;;8.82;5.22;;;17.30;86.70;;;;;;5055886;28;20017;-14
2022/08/20 03:28:18;;;;;;;7.95;4.70;;;17.40;86.70;;;;;;5055886;28;20111;-13
2022/08/20 03:30:45;;;;;;;8.23;4.78;;;17.30;86.70;;;;;;5055749;28;20017;-13
2022/08/20 03:33:11;;;;;;;7.70;5.03;;;17.40;86.60;;;;;;5055311;28;20037;-12
2022/08/20 03:35:37;;;;;;;7.38;4.70;;;17.40;86.60;;;;;;5055878;28;20086;-14
2022/08/20 03:38:12;;;;;;;8.25;4.65;;;17.40;86.60;;;;;;5055526;28;20036;-13
2022/08/20 03:40:39;;;;;;;7.75;4.90;;;17.40;86.50;;;;;;5055353;28;20029;-13
2022/08/20 03:43:07;;;;;;;8.18;4.47;;;17.40;86.60;;;;;;5055290;28;20040;-13
2022/08/20 03:45:35;;;;;;;10.88;5.70;;;17.40;86.50;;;;;;5055380;28;20104;-14
2022/08/20 03:48:03;;;;;;;7.80;4.68;;;17.30;86.50;;;;;;5055693;28;20041;-14
2022/08/20 03:50:31;;;;;;;8.93;5.22;;;17.30;86.50;;;;;;5054111;28;20025;-13
2022/08/20 03:52:58;;;;;;;13.88;6.38;;;17.30;86.60;;;;;;5054893;28;20052;-13
2022/08/20 03:55:25;;;;;;;8.25;5.28;;;17.30;86.60;;;;;;5055507;28;20029;-15
2022/08/20 03:57:54;;;;;;;8.82;5.07;;;17.30;86.60;;;;;;5055507;28;20024;-13
2022/08/20 04:00:30;;;;;;;6.45;4.47;;;17.30;86.60;;;;;;5055260;28;20029;-13
2022/08/20 04:02:56;;;;;;;7.53;4.38;;;17.30;86.60;;;;;;5054956;28;20032;-13
2022/08/20 04:05:27;;;;;;;6.97;4.68;;;17.30;86.60;;;;;;5055348;28;20108;-13
2022/08/20 04:07:53;;;;;;;10.77;6.57;;;17.30;86.60;;;;;;5054940;28;20550;-13
2022/08/20 04:10:20;;;;;;;12.02;6.18;;;17.30;86.60;;;;;;5055397;28;20048;-14
2022/08/20 04:12:46;;;;;;;10.70;5.97;;;17.40;86.60;;;;;;5053575;28;20025;-13
2022/08/20 04:15:14;;;;;;;10.48;6.30;;;17.40;86.60;;;;;;5054808;28;20025;-14
2022/08/20 04:17:44;;;;;;;10.55;6.60;;;17.40;86.70;;;;;;5055131;28;20481;-13
2022/08/20 04:20:13;;;;;;;14.27;6.47;;;17.40;86.60;;;;;;5055041;28;20035;-14
2022/08/20 04:22:39;;;;;;;11.35;5.95;;;17.40;86.70;;;;;;5055039;28;20035;-13
2022/08/20 04:25:09;;;;;;;9.73;5.63;;;17.40;86.70;;;;;;5054434;28;20101;-13
2022/08/20 04:27:37;;;;;;;9.98;5.70;;;17.40;86.70;;;;;;5055065;28;20079;-14
2022/08/20 04:30:09;;;;;;;8.57;5.65;;;17.40;86.70;;;;;;5054629;28;20053;-13
2022/08/20 04:32:37;;;;;;;8.20;5.00;;;17.50;86.60;;;;;;5054556;28;20068;-14
2022/08/20 04:35:06;;;;;;;12.65;5.20;;;17.50;86.50;;;;;;5054148;28;20396;-14
2022/08/20 04:37:33;;;;;;;8.50;5.35;;;17.50;86.50;;;;;;5054430;28;20029;-13
2022/08/20 04:42:54;;;;;;;9.27;6.13;;;17.60;86.60;;;;;;5054404;28;20027;-14
2022/08/20 04:45:23;;;;;;;9.18;5.35;;;17.60;86.50;;;;;;5054561;28;20036;-14
2022/08/20 04:47:50;;;;;;;6.30;4.68;;;17.60;86.50;;;;;;5054522;28;20029;-13
2022/08/20 04:50:18;;;;;;;8.25;4.50;;;17.70;86.40;;;;;;5054476;28;20032;-13
2022/08/20 04:52:46;;;;;;;8.57;4.53;;;17.80;86.30;;;;;;5054148;28;20060;-13
2022/08/20 04:55:12;;;;;;;7.45;4.32;;;17.90;86.20;;;;;;5054338;28;20021;-13
2022/08/20 04:57:38;;;;;;;5.63;4.13;;;17.90;86.00;;;;;;5054401;28;20099;-13
2022/08/20 05:00:12;;;;;;;7.38;4.57;;;17.90;85.90;;;;;;5053149;28;20090;-14
2022/08/20 05:02:39;;;;;;;6.22;4.20;;;17.90;85.80;;;;;;5054054;28;20023;-13
2022/08/20 05:05:07;;;;;;;6.80;4.78;;;18.00;85.80;;;;;;5053702;28;20021;-13
2022/08/20 05:07:39;;;;;;;9.23;5.07;;;18.00;85.80;;;;;;5054127;28;20025;-14
2022/08/20 05:10:06;;;;;;;6.63;3.83;;;18.10;85.70;;;;;;5054050;28;20025;-14
2022/08/20 05:12:32;;;;;;;10.40;6.20;;;18.20;85.70;;;;;;5053762;28;20475;-13
2022/08/20 05:14:59;;;;;;;8.60;5.43;;;18.20;85.60;;;;;;5053474;28;20215;-13
2022/08/20 05:17:25;;;;;;;7.45;4.57;;;18.30;85.50;;;;;;5053893;28;20036;-14
2022/08/20 05:19:51;;;;;;;7.80;4.95;;;18.40;85.50;;;;;;5053771;28;20025;-13
2022/08/20 05:22:18;;;;;;;7.28;4.80;;;18.60;85.50;;;;;;5053527;28;20029;-13
2022/08/20 05:24:44;;;;;;;8.85;5.20;;;18.70;85.60;;;;;;5053493;28;20019;-13
2022/08/20 05:27:10;;;;;;;7.57;4.88;;;18.90;85.40;;;;;;5053350;28;20119;-14
2022/08/20 05:29:36;;;;;;;9.20;5.00;;;19.00;84.90;;;;;;5054284;28;20017;-13
2022/08/20 05:32:03;;;;;;;8.88;5.53;;;19.10;84.60;;;;;;5053948;28;20071;-12
2022/08/20 05:34:29;;;;;;;8.77;5.28;;;19.20;84.30;;;;;;5053304;28;20076;-13
2022/08/20 05:36:55;;;;;;;7.65;4.70;;;19.30;84.20;;;;;;5053716;28;20052;-13
2022/08/20 05:39:22;;;;;;;8.43;4.70;;;19.40;84.00;;;;;;5053215;28;20484;-12
2022/08/20 05:41:49;;;;;;;5.97;4.13;;;19.50;83.90;;;;;;5053211;28;20516;-13
2022/08/20 05:44:17;;;;;;;5.60;4.00;;;19.60;83.90;;;;;;5053227;28;20017;-13
2022/08/20 05:46:45;;;;;;;8.02;5.15;;;19.80;83.70;;;;;;5053485;28;20099;-14
2022/08/20 05:49:15;;;;;;;8.98;3.80;;;19.90;83.40;;;;;;5053226;28;20082;-13
2022/08/20 05:51:42;;;;;;;8.55;4.63;;;20.00;83.00;;;;;;5053798;28;20116;-13
2022/08/20 05:54:08;;;;;;;10.68;4.63;;;20.20;82.80;;;;;;5052941;28;20052;-13
2022/08/20 05:56:34;;;;;;;6.70;3.78;;;20.30;82.60;;;;;;5053112;28;20127;-12
2022/08/20 05:59:05;;;;;;;6.90;4.10;;;20.50;82.20;;;;;;5052800;28;20036;-12
2022/08/20 06:01:34;;;;;;;5.55;4.00;;;20.50;81.90;;;;;;5053024;28;20397;-13
2022/08/20 06:06:45;;;;;;;6.82;4.65;;;20.70;81.60;;;;;;5053597;28;20040;-13
2022/08/20 06:09:11;;;;;;;7.70;4.65;;;20.90;81.30;;;;;;5052666;28;20031;-13
2022/08/20 06:11:36;;;;;;;6.97;4.40;;;21.00;81.10;;;;;;5052743;28;20020;-14
2022/08/20 06:14:02;;;;;;;8.95;4.28;;;21.10;80.70;;;;;;5053075;28;20029;-12
2022/08/20 06:16:29;;;;;;;8.73;4.90;;;21.30;80.40;;;;;;5053255;28;20507;-11
2022/08/20 06:18:55;;;;;;;6.65;3.88;;;21.40;80.10;;;;;;5052777;28;20025;-11
2022/08/20 06:21:21;;;;;;;8.68;4.22;;;21.50;80.00;;;;;;5052826;28;20119;-11
2022/08/20 06:23:47;;;;;;;10.15;4.40;;;21.60;79.30;;;;;;5053131;28;20112;-10
2022/08/20 06:26:13;;;;;;;7.40;3.50;;;21.80;78.90;;;;;;5053043;28;20127;-11
2022/08/20 06:28:40;;;;;;;6.55;3.45;;;22.00;78.60;;;;;;5053010;28;20029;-12
2022/08/20 06:31:06;;;;;;;4.97;3.75;;;22.10;78.20;;;;;;5052878;28;20044;-13
2022/08/20 06:33:32;;;;;;;6.47;3.58;;;22.30;77.40;;;;;;5053390;28;20105;-15
2022/08/20 06:35:58;;;;;;;7.75;3.50;;;22.50;76.90;;;;;;5052731;28;20049;-13
2022/08/20 06:38:24;;;;;;;6.63;3.58;;;22.60;76.60;;;;;;5052964;28;20017;-12
2022/08/20 06:40:50;;;;;;;6.95;3.78;;;22.70;76.80;;;;;;5052685;28;20086;-13
2022/08/20 06:43:16;;;;;;;5.55;3.30;;;22.80;77.30;;;;;;5053446;28;20079;-13
2022/08/20 06:45:42;;;;;;;8.00;3.60;;;23.00;77.00;;;;;;5052948;28;20025;-13
2022/08/20 06:48:11;;;;;;;6.47;2.90;;;23.20;75.80;;;;;;5052910;28;20057;-12
2022/08/20 06:50:41;;;;;;;8.35;3.90;;;23.40;76.00;;;;;;5052881;28;20029;-13
2022/08/20 06:53:13;;;;;;;7.03;3.33;;;23.60;75.40;;;;;;5055176;28;20050;-11
2022/08/20 06:55:44;;;;;;;8.95;2.90;;;23.90;74.40;;;;;;5056630;28;20021;-11
2022/08/20 06:58:11;;;;;;;5.68;2.80;;;24.00;74.10;;;;;;5056668;28;20056;-12
2022/08/20 07:00:41;;;;;;;3.65;2.65;;;24.20;73.40;;;;;;5056538;28;20095;-11
2022/08/20 07:03:07;;;;;;;4.60;2.75;;;24.40;72.80;;;;;;5056021;28;20116;-11
2022/08/20 07:05:36;;;;;;;4.05;2.45;;;24.50;71.70;;;;;;5056143;28;20512;-12
2022/08/20 07:08:04;;;;;;;3.65;2.05;;;24.60;71.30;;;;;;5056098;28;20033;-11
2022/08/20 07:10:30;;;;;;;6.30;2.80;;;24.70;71.10;;;;;;5056342;28;20021;-13
2022/08/20 07:12:58;;;;;;;5.55;2.45;;;24.80;71.00;;;;;;5055742;28;20061;-12
2022/08/20 07:15:25;;;;;;;6.38;2.25;;;24.90;70.00;;;;;;5054721;28;20401;-12
2022/08/20 07:17:56;;;;;;;5.72;2.58;;;24.90;69.80;;;;;;5055939;28;20056;-12
2022/08/20 07:20:22;;;;;;;4.80;2.58;;;24.80;69.30;;;;;;5056100;28;20028;-12
2022/08/20 07:22:48;;;;;;;7.72;2.95;;;24.70;69.00;;;;;;5055842;28;20104;-12
2022/08/20 07:25:17;;;;;;;4.97;2.72;;;24.60;69.10;;;;;;5056144;28;20025;-12
2022/08/20 07:27:44;;;;;;;6.85;3.50;;;24.60;69.90;;;;;;5055728;28;20029;-12
2022/08/20 07:33:09;;;;;;;7.72;2.95;;;24.70;70.40;;;;;;5055733;28;20135;-12
2022/08/20 07:35:34;;;;;;;9.60;3.88;;;24.80;70.40;;;;;;5055624;28;20208;-12
2022/08/20 07:38:00;;;;;;;8.30;3.45;;;24.80;70.30;;;;;;5055553;28;20104;-12
2022/08/20 07:40:29;;;;;;;5.20;3.03;;;24.90;70.20;;;;;;5054219;28;20025;-12
2022/08/20 07:42:57;;;;;;;4.63;3.00;;;24.90;70.00;;;;;;5055270;28;20021;-12
2022/08/20 07:45:24;;;;;;;8.07;3.70;;;25.00;69.90;;;;;;5055412;28;20114;-12
2022/08/20 07:47:54;;;;;;;8.00;3.60;;;25.10;68.60;;;;;;5055395;28;20056;-12
2022/08/20 07:50:24;;;;;;;6.45;3.00;;;25.10;68.50;;;;;;5055391;28;20035;-12
2022/08/20 07:52:51;;;;;;;4.93;3.00;;;25.10;68.00;;;;;;5054911;28;20075;-11
2022/08/20 07:55:19;;;;;;;5.00;2.80;;;25.20;66.60;;;;;;5055033;28;20057;-13
2022/08/20 07:57:48;;;;;;;5.50;3.00;;;25.20;66.20;;;;;;5055181;28;20033;-12
2022/08/20 08:00:17;;;;;;;5.68;2.80;;;25.10;66.40;;;;;;5055427;28;20036;-13
2022/08/20 08:02:43;;;;;;;3.67;2.20;;;25.20;66.60;;;;;;5054932;28;20111;-12
2022/08/20 08:05:09;;;;;;;5.25;2.75;;;25.30;66.40;;;;;;5055184;28;20441;-12
2022/08/20 08:07:37;;;;;;;7.18;2.58;;;25.40;66.20;;;;;;5055021;28;20068;-12
2022/08/20 08:10:06;;;;;;;6.07;2.88;;;25.40;65.90;;;;;;5054804;28;20362;-12
2022/08/20 08:12:40;;;;;;;6.63;2.60;;;25.40;65.70;;;;;;5055137;28;20037;-11
2022/08/20 08:15:11;;;;;;;8.32;2.72;;;25.40;65.10;;;;;;5054976;28;20113;-11
2022/08/20 08:17:37;;;;;;;4.88;2.30;;;25.40;65.60;;;;;;5055076;28;20036;-12
2022/08/20 08:20:06;;;;;;;2.97;2.20;;;25.50;65.70;;;;;;5055090;28;20116;-11
2022/08/20 08:22:32;;;;;;;5.70;2.40;;;25.60;65.20;;;;;;5053520;28;20090;-11
2022/08/20 08:25:01;;;;;;;3.10;2.10;;;25.70;64.60;;;;;;5054511;28;20021;-11
2022/08/20 08:27:31;;;;;;;4.68;2.30;;;25.80;64.50;;;;;;5054927;28;20091;-12
2022/08/20 08:30:02;;;;;;;5.47;2.60;;;25.90;64.40;;;;;;5054972;28;20101;-12
2022/08/20 08:32:29;;;;;;;7.03;2.97;;;26.10;63.10;;;;;;5054883;28;20028;-12
2022/08/20 08:34:55;;;;;;;4.72;2.70;;;26.40;62.00;;;;;;5054207;28;20029;-12
2022/08/20 08:37:21;;;;;;;5.53;2.47;;;26.60;61.70;;;;;;5054418;28;20029;-12
2022/08/20 08:39:48;;;;;;;5.85;2.70;;;26.80;62.20;;;;;;5054586;28;20028;-12
2022/08/20 08:42:25;;;;;;;4.60;2.80;;;27.20;61.90;;;;;;5054589;28;20024;-11
2022/08/20 08:44:53;;;;;;;6.55;2.63;;;27.50;61.20;;;;;;5054331;28;20431;-12
2022/08/20 08:47:34;;;;;;;4.13;2.80;;;27.90;60.50;;;;;;5054580;28;20025;-12
2022/08/20 08:50:04;;;;;;;4.88;2.65;;;28.30;59.80;;;;;;5054561;28;20055;-11
2022/08/20 08:52:33;;;;;;;5.93;2.63;;;28.80;59.80;;;;;;5054173;28;20045;-12
2022/08/20 08:55:03;;;;;;;5.25;2.65;;;29.20;59.00;;;;;;5053729;28;20123;-13
2022/08/20 08:57:29;;;;;;;4.53;2.25;;;29.70;57.90;;;;;;5054321;28;20106;-11
2022/08/20 09:00:01;;;;;;;4.97;2.45;;;30.00;57.00;;;;;;5054302;28;20052;-11
2022/08/20 09:02:29;;;;;;;3.80;2.10;;;30.40;56.20;;;;;;5054615;28;20371;-12
2022/08/20 09:04:57;;;;;;;5.57;2.45;;;30.80;55.60;;;;;;5053959;28;20490;-11
2022/08/20 09:07:26;;;;;;;6.10;2.05;;;31.20;52.70;;;;;;5054173;28;20373;-11
2022/08/20 09:09:52;;;;;;;4.32;2.30;;;31.40;52.10;;;;;;5053751;28;20147;-13
2022/08/20 09:12:21;;;;;;;3.70;1.80;;;31.60;50.90;;;;;;5053881;28;20354;-12
2022/08/20 09:14:51;;;;;;;3.35;1.98;;;31.90;50.20;;;;;;5052749;28;20060;-12
2022/08/20 09:17:19;;;;;;;3.22;1.70;;;32.00;49.70;;;;;;5053981;28;20025;-11
2022/08/20 09:19:45;;;;;;;5.75;2.25;;;32.20;50.00;;;;;;5053635;28;20025;-12
2022/08/20 09:22:14;;;;;;;4.10;2.00;;;32.30;47.70;;;;;;5053593;28;20036;-12
2022/08/20 09:24:42;;;;;;;4.38;2.30;;;32.50;47.20;;;;;;5053452;28;20017;-12
2022/08/20 09:27:09;;;;;;;2.30;2.00;;;32.50;46.40;;;;;;5053318;28;20063;-12
2022/08/20 09:29:36;;;;;;;4.05;1.92;;;32.40;47.20;;;;;;5053485;28;20025;-12
2022/08/20 09:32:06;;;;;;;5.82;2.13;;;32.20;47.40;;;;;;5053429;28;20452;-12
2022/08/20 09:34:45;;;;;;;3.28;2.10;;;32.40;47.70;;;;;;5053506;28;20083;-11
2022/08/20 09:37:12;;;;;;;3.85;1.90;;;32.50;47.00;;;;;;5053560;28;20103;-12
2022/08/20 09:39:39;;;;;;;4.35;2.33;;;32.70;47.70;;;;;;5053341;28;20033;-11
2022/08/20 09:42:12;;;;;;;2.80;1.80;;;32.90;47.20;;;;;;5053858;28;20045;-11
2022/08/20 09:44:40;;;;;;;3.08;1.63;;;33.10;44.70;;;;;;5053575;28;20025;-11
2022/08/20 09:47:06;;;;;;;2.95;1.83;;;33.20;45.10;;;;;;5053040;28;20032;-11
2022/08/20 09:49:32;;;;;;;2.40;1.60;;;33.30;45.50;;;;;;5053175;28;20032;-12
2022/08/20 09:52:00;;;;;;;2.97;1.63;;;33.20;45.60;;;;;;5053109;28;20025;-12
2022/08/20 09:54:28;;;;;;;1.88;1.50;;;33.30;45.80;;;;;;5053106;28;20029;-12
2022/08/20 09:57:02;;;;;;;3.58;1.60;;;33.40;45.10;;;;;;5052805;28;20433;-12
2022/08/20 09:59:30;;;;;;;5.63;1.90;;;33.60;44.20;;;;;;5053075;28;20032;-12
2022/08/20 10:01:56;;;;;;;3.60;1.80;;;33.70;44.10;;;;;;5053389;28;20047;-12
2022/08/20 10:04:22;;;;;;;3.08;1.75;;;33.90;43.20;;;;;;5052874;28;20104;-12
2022/08/20 10:06:48;;;;;;;2.17;1.75;;;34.20;43.10;;;;;;5053130;28;20152;-11
2022/08/20 10:12:36;;;;;;;3.10;2.03;;;34.60;42.70;;;;;;5053284;28;20099;-12
2022/08/20 10:15:03;;;;;;;3.50;1.75;;;34.80;43.40;;;;;;5052564;28;20116;-12
2022/08/20 10:17:29;;;;;;;3.13;1.83;;;34.80;43.50;;;;;;5052817;28;20071;-12
2022/08/20 10:19:55;;;;;;;4.30;1.85;;;34.90;43.10;;;;;;5052946;28;20053;-12
2022/08/20 10:22:21;;;;;;;4.57;1.85;;;35.00;42.50;;;;;;5053425;28;20050;-12
2022/08/20 10:24:47;;;;;;;3.22;1.90;;;35.10;42.50;;;;;;5052868;28;20028;-12
2022/08/20 10:27:13;;;;;;;5.03;2.08;;;35.20;42.40;;;;;;5056109;28;20556;-12
2022/08/20 10:29:39;;;;;;;2.85;1.90;;;35.40;41.70;;;;;;5057134;28;20024;-11
2022/08/20 10:32:12;;;;;;;2.03;1.70;;;35.90;41.70;;;;;;5056765;28;20055;-11
2022/08/20 10:34:42;;;;;;;3.70;2.35;;;36.30;39.90;;;;;;5057002;28;20029;-11
2022/08/20 10:37:13;;;;;;;3.45;2.03;;;36.60;39.80;;;;;;5056876;28;20362;-12
2022/08/20 10:39:38;;;;;;;2.30;1.80;;;36.90;40.10;;;;;;5057231;28;20036;-13
2022/08/20 10:42:04;;;;;;;3.85;1.73;;;37.30;40.20;;;;;;5055326;28;20029;-11
2022/08/20 10:44:30;;;;;;;5.15;1.83;;;37.50;39.60;;;;;;5055310;28;20066;-11
2022/08/20 10:46:56;;;;;;;2.95;1.40;;;37.60;38.90;;;;;;5056318;28;20033;-12
2022/08/20 10:49:22;;;;;;;3.03;1.63;;;37.70;39.20;;;;;;5056505;28;20033;-12
2022/08/20 10:51:48;;;;;;;4.80;1.80;;;37.90;38.60;;;;;;5056565;28;20032;-13
2022/08/20 10:54:14;;;;;;;2.90;1.80;;;38.20;38.50;;;;;;5056672;28;20447;-12
2022/08/20 10:56:40;;;;;;;3.45;2.00;;;38.30;38.40;;;;;;5056613;28;20025;-11
2022/08/20 10:59:07;;;;;;;3.95;2.08;;;38.40;38.20;;;;;;5056322;28;20905;-12
2022/08/20 11:01:33;;;;;;;3.47;1.90;;;38.40;38.30;;;;;;5056739;28;20037;-12
2022/08/20 11:03:59;;;;;;;3.60;2.10;;;38.50;37.90;;;;;;5056255;28;20040;-13
2022/08/20 11:06:25;;;;;;;2.65;1.70;;;38.70;37.10;;;;;;5056347;28;20036;-12
2022/08/20 11:08:51;;;;;;;3.78;1.92;;;38.80;36.40;;;;;;5055922;28;20032;-12
2022/08/20 11:11:17;;;;;;;4.30;1.92;;;38.90;35.90;;;;;;5056150;28;20021;-13
2022/08/20 11:13:42;;;;;;;3.08;1.50;;;38.90;36.20;;;;;;5056526;28;20033;-13
2022/08/20 11:16:09;;;;;;;4.38;1.70;;;39.20;36.30;;;;;;5056308;28;20025;-13
2022/08/20 11:18:35;;;;;;;2.13;1.40;;;39.40;35.30;;;;;;5056271;28;20025;-12
2022/08/20 11:21:01;;;;;;;4.18;1.90;;;39.50;35.20;;;;;;5054581;28;20532;-12
2022/08/20 11:23:27;;;;;;;1.65;1.40;;;39.50;35.10;;;;;;5056058;28;20099;-12
2022/08/20 11:25:53;;;;;;;3.58;1.75;;;39.60;34.20;;;;;;5056039;28;20380;-12
2022/08/20 11:28:19;;;;;;;2.90;1.50;;;39.80;33.60;;;;;;5055921;28;20025;-11
2022/08/20 11:30:48;;;;;;;2.72;1.50;;;40.00;33.40;;;;;;5055787;28;20029;-11
2022/08/20 11:33:14;;;;;;;3.85;1.80;;;40.20;32.60;;;;;;5055905;28;20104;-12
2022/08/20 11:35:40;;;;;;;2.55;1.70;;;40.40;31.80;;;;;;5054442;28;20036;-12
2022/08/20 11:38:06;;;;;;;6.50;1.92;;;40.50;32.20;;;;;;5054753;28;20389;-12
2022/08/20 11:40:32;;;;;;;3.80;1.90;;;40.50;32.10;;;;;;5055678;28;20031;-12
2022/08/20 11:42:58;;;;;;;3.38;1.63;;;40.40;32.60;;;;;;5055668;28;20063;-12
2022/08/20 11:45:24;;;;;;;3.53;1.77;;;40.40;32.60;;;;;;5054215;28;20392;-11
2022/08/20 11:47:50;;;;;;;3.83;1.70;;;40.00;32.90;;;;;;5055718;28;20086;-12
2022/08/20 11:50:19;;;;;;;3.92;1.73;;;39.50;33.20;;;;;;5055651;28;20025;-12
2022/08/20 11:52:45;;;;;;;4.25;1.83;;;39.10;33.90;;;;;;5055087;28;20052;-12
2022/08/20 11:55:13;;;;;;;1.80;1.50;;;38.70;33.80;;;;;;5055180;28;20029;-12
2022/08/20 11:57:46;;;;;;;5.72;1.85;;;38.30;34.30;;;;;;5055152;28;20592;-12
2022/08/20 12:00:20;;;;;;;3.67;1.90;;;38.00;34.50;;;;;;5055479;28;20025;-11
2022/08/20 12:02:48;;;;;;;4.30;1.67;;;37.90;34.30;;;;;;5055483;28;20036;-11
2022/08/20 12:05:14;;;;;;;4.43;1.75;;;37.80;34.90;;;;;;5055042;28;20116;-13
2022/08/20 12:07:40;;;;;;;2.47;1.55;;;37.80;35.40;;;;;;5055053;28;20480;-11
2022/08/20 12:10:08;;;;;;;3.67;1.63;;;38.10;35.20;;;;;;5055520;28;20025;-12
2022/08/20 12:12:37;;;;;;;6.05;1.85;;;38.40;34.60;;;;;;5054921;28;20393;-12
2022/08/20 12:15:04;;;;;;;1.60;1.50;;;38.50;33.30;;;;;;5054643;28;20171;-12
2022/08/20 12:17:31;;;;;;;4.93;1.60;;;38.50;33.30;;;;;;5055089;28;20362;-12
2022/08/20 12:20:00;;;;;;;2.20;1.20;;;38.70;33.10;;;;;;5055127;28;20400;-12
2022/08/20 12:22:27;;;;;;;4.70;1.65;;;38.90;33.20;;;;;;5055035;28;20056;-11
2022/08/20 12:24:54;;;;;;;1.85;1.33;;;39.10;33.10;;;;;;5054892;28;20048;-12
2022/08/20 12:27:24;;;;;;;1.92;1.13;;;39.40;33.10;;;;;;5054741;28;20101;-12
2022/08/20 12:29:52;;;;;;;2.67;1.45;;;39.70;32.10;;;;;;5054967;28;20043;-12
2022/08/20 12:32:23;;;;;;;2.40;1.10;;;40.30;29.70;;;;;;5054842;28;20028;-12
2022/08/20 12:34:49;;;;;;;3.15;1.40;;;40.90;30.00;;;;;;5054317;28;20481;-12
2022/08/20 12:37:18;;;;;;;1.65;1.38;;;41.50;30.20;;;;;;5054814;28;20044;-12
2022/08/20 12:39:47;;;;;;;1.90;1.20;;;41.90;29.90;;;;;;5054455;28;20064;-12
2022/08/20 12:42:15;;;;;;;3.10;1.42;;;42.20;30.30;;;;;;5054339;28;20108;-12
2022/08/20 12:44:42;;;;;;;1.58;1.20;;;42.40;30.40;;;;;;5054667;28;20120;-12
2022/08/20 12:47:23;;;;;;;2.03;1.65;;;42.50;30.10;;;;;;5054095;28;20067;-12
2022/08/20 12:49:55;;;;;;;3.73;1.30;;;42.40;29.30;;;;;;5054713;28;20064;-12
2022/08/20 12:52:23;;;;;;;3.30;1.58;;;42.20;29.50;;;;;;5052735;28;20107;-13
2022/08/20 12:54:50;;;;;;;2.70;1.63;;;41.90;30.10;;;;;;5054303;28;20039;-13
2022/08/20 12:57:28;;;;;;;1.75;1.20;;;41.90;30.50;;;;;;5053992;28;20021;-12
2022/08/20 12:59:56;;;;;;;3.70;1.60;;;42.10;30.30;;;;;;5054132;28;20479;-12
2022/08/20 13:02:23;;;;;;;1.88;1.50;;;42.30;29.30;;;;;;5054150;28;20108;-12